sensor_id;sensor_type;location;lat;lon;timestamp;pressure;altitude;pressure_sealevel;temperature;humidity
36828;BME280;22766;48.042;11.192;2022-07-29T00:02:05;95099.28;;;17.21;100.00
36828;BME280;22766;48.042;11.192;2022-07-29T00:04:34;95097.03;;;17.18;100.00
36828;BME280;22766;48.042;11.192;2022-07-29T00:07:02;95095.88;;;17.20;100.00
36828;BME280;22766;48.042;11.192;2022-07-29T00:09:29;95097.78;;;17.12;100.00
36828;BME280;22766;48.042;11.192;2022-07-29T00:11:58;95093.91;;;17.01;100.00
36828;BME280;22766;48.042;11.192;2022-07-29T00:14:25;95089.13;;;17.05;100.00
36828;BME280;22766;48.042;11.192;2022-07-29T00:16:53;95087.94;;;17.07;100.00
36828;BME280;22766;48.042;11.192;2022-07-29T00:19:20;95074.03;;;17.00;100.00
36828;BME280;22766;48.042;11.192;2022-07-29T00:21:46;95064.06;;;17.04;100.00
36828;BME280;22766;48.042;11.192;2022-07-29T00:24:13;95066.31;;;17.13;100.00
36828;BME280;22766;48.042;11.192;2022-07-29T00:26:40;95058.84;;;17.04;100.00
36828;BME280;22766;48.042;11.192;2022-07-29T00:29:06;95053.22;;;17.07;100.00
36828;BME280;22766;48.042;11.192;2022-07-29T00:31:53;95045.41;;;17.07;100.00
36828;BME280;22766;48.042;11.192;2022-07-29T00:34:20;95057.63;;;17.06;100.00
36828;BME280;22766;48.042;11.192;2022-07-29T00:37:05;95052.66;;;17.11;100.00
36828;BME280;22766;48.042;11.192;2022-07-29T00:39:33;95052.69;;;17.18;100.00
36828;BME280;22766;48.042;11.192;2022-07-29T00:42:03;95053.50;;;17.18;100.00
36828;BME280;22766;48.042;11.192;2022-07-29T00:44:29;95054.97;;;17.27;100.00
36828;BME280;22766;48.042;11.192;2022-07-29T00:46:56;95061.81;;;17.28;100.00
36828;BME280;22766;48.042;11.192;2022-07-29T00:49:23;95056.97;;;17.25;100.00
36828;BME280;22766;48.042;11.192;2022-07-29T00:51:50;95046.72;;;17.24;100.00
36828;BME280;22766;48.042;11.192;2022-07-29T00:54:17;95053.16;;;17.28;100.00
36828;BME280;22766;48.042;11.192;2022-07-29T00:56:44;95055.34;;;17.24;100.00
36828;BME280;22766;48.042;11.192;2022-07-29T00:59:11;95047.66;;;17.16;100.00
36828;BME280;22766;48.042;11.192;2022-07-29T01:01:37;95047.28;;;17.19;100.00
36828;BME280;22766;48.042;11.192;2022-07-29T01:04:05;95044.50;;;17.21;100.00
36828;BME280;22766;48.042;11.192;2022-07-29T01:06:33;95029.00;;;17.19;100.00
36828;BME280;22766;48.042;11.192;2022-07-29T01:09:01;95023.19;;;17.17;100.00
36828;BME280;22766;48.042;11.192;2022-07-29T01:11:28;95019.97;;;17.15;100.00
36828;BME280;22766;48.042;11.192;2022-07-29T01:13:56;95017.72;;;17.06;100.00
36828;BME280;22766;48.042;11.192;2022-07-29T01:16:38;95016.91;;;17.05;100.00
36828;BME280;22766;48.042;11.192;2022-07-29T01:22:31;95014.72;;;17.09;100.00
36828;BME280;22766;48.042;11.192;2022-07-29T01:31:05;95003.31;;;17.16;100.00
36828;BME280;22766;48.042;11.192;2022-07-29T01:33:41;95000.09;;;17.14;100.00
36828;BME280;22766;48.042;11.192;2022-07-29T01:36:33;95002.50;;;17.16;100.00
36828;BME280;22766;48.042;11.192;2022-07-29T01:39:14;95003.94;;;17.18;100.00
36828;BME280;22766;48.042;11.192;2022-07-29T01:41:54;95005.47;;;17.06;100.00
36828;BME280;22766;48.042;11.192;2022-07-29T01:44:37;94999.13;;;16.88;100.00
36828;BME280;22766;48.042;11.192;2022-07-29T01:47:13;94995.91;;;16.86;100.00
36828;BME280;22766;48.042;11.192;2022-07-29T01:49:46;94985.38;;;16.72;100.00
36828;BME280;22766;48.042;11.192;2022-07-29T01:52:20;94987.56;;;16.69;100.00
36828;BME280;22766;48.042;11.192;2022-07-29T01:54:54;94980.50;;;16.63;100.00
36828;BME280;22766;48.042;11.192;2022-07-29T01:57:26;94977.66;;;16.58;100.00
36828;BME280;22766;48.042;11.192;2022-07-29T01:59:56;94979.38;;;16.51;100.00
36828;BME280;22766;48.042;11.192;2022-07-29T02:02:24;94966.28;;;16.44;100.00
36828;BME280;22766;48.042;11.192;2022-07-29T02:04:52;94966.47;;;16.43;100.00
36828;BME280;22766;48.042;11.192;2022-07-29T02:07:21;94967.03;;;16.38;100.00
36828;BME280;22766;48.042;11.192;2022-07-29T02:09:50;94971.63;;;16.36;100.00
36828;BME280;22766;48.042;11.192;2022-07-29T02:12:18;94966.00;;;16.33;100.00
36828;BME280;22766;48.042;11.192;2022-07-29T02:14:52;94960.34;;;16.29;100.00
36828;BME280;22766;48.042;11.192;2022-07-29T02:17:33;94959.97;;;16.32;100.00
36828;BME280;22766;48.042;11.192;2022-07-29T02:20:04;94963.56;;;16.31;100.00
36828;BME280;22766;48.042;11.192;2022-07-29T02:22:33;94963.56;;;16.31;100.00
36828;BME280;22766;48.042;11.192;2022-07-29T02:25:01;94968.59;;;16.33;100.00
36828;BME280;22766;48.042;11.192;2022-07-29T02:27:29;94960.53;;;16.28;100.00
36828;BME280;22766;48.042;11.192;2022-07-29T02:29:58;94955.69;;;16.25;100.00
36828;BME280;22766;48.042;11.192;2022-07-29T02:32:27;94957.47;;;16.24;100.00
36828;BME280;22766;48.042;11.192;2022-07-29T02:34:56;94958.25;;;16.18;100.00
36828;BME280;22766;48.042;11.192;2022-07-29T02:37:25;94963.28;;;16.20;100.00
36828;BME280;22766;48.042;11.192;2022-07-29T02:39:54;94955.03;;;16.16;100.00
36828;BME280;22766;48.042;11.192;2022-07-29T02:42:22;94959.81;;;16.13;100.00
36828;BME280;22766;48.042;11.192;2022-07-29T02:44:50;94956.19;;;16.14;100.00
36828;BME280;22766;48.042;11.192;2022-07-29T02:47:24;94957.22;;;16.13;100.00
36828;BME280;22766;48.042;11.192;2022-07-29T02:50:02;94960.59;;;16.13;100.00
36828;BME280;22766;48.042;11.192;2022-07-29T02:52:44;94951.72;;;16.08;100.00
36828;BME280;22766;48.042;11.192;2022-07-29T02:55:15;94958.38;;;16.10;100.00
36828;BME280;22766;48.042;11.192;2022-07-29T02:57:46;94951.94;;;16.06;100.00
36828;BME280;22766;48.042;11.192;2022-07-29T03:00:22;94951.31;;;16.04;100.00
36828;BME280;22766;48.042;11.192;2022-07-29T03:02:52;94949.69;;;16.03;100.00
36828;BME280;22766;48.042;11.192;2022-07-29T03:05:20;94946.78;;;15.92;100.00
36828;BME280;22766;48.042;11.192;2022-07-29T03:07:58;94945.53;;;15.87;100.00
36828;BME280;22766;48.042;11.192;2022-07-29T03:10:27;94945.84;;;15.78;100.00
36828;BME280;22766;48.042;11.192;2022-07-29T03:12:55;94948.94;;;15.67;100.00
36828;BME280;22766;48.042;11.192;2022-07-29T03:15:22;94946.06;;;15.62;100.00
36828;BME280;22766;48.042;11.192;2022-07-29T03:17:51;94945.44;;;15.60;100.00
36828;BME280;22766;48.042;11.192;2022-07-29T03:20:19;94947.06;;;15.61;100.00
36828;BME280;22766;48.042;11.192;2022-07-29T03:22:45;94945.19;;;15.55;100.00
36828;BME280;22766;48.042;11.192;2022-07-29T03:25:16;94942.41;;;15.56;100.00
36828;BME280;22766;48.042;11.192;2022-07-29T03:27:44;94940.50;;;15.65;100.00
36828;BME280;22766;48.042;11.192;2022-07-29T03:30:12;94939.75;;;15.71;100.00
36828;BME280;22766;48.042;11.192;2022-07-29T03:32:47;94945.66;;;15.79;100.00
36828;BME280;22766;48.042;11.192;2022-07-29T03:35:14;94939.09;;;15.83;100.00
36828;BME280;22766;48.042;11.192;2022-07-29T03:37:43;94943.59;;;15.96;100.00
36828;BME280;22766;48.042;11.192;2022-07-29T03:40:14;94946.09;;;16.04;100.00
36828;BME280;22766;48.042;11.192;2022-07-29T03:42:44;94946.34;;;16.09;100.00
36828;BME280;22766;48.042;11.192;2022-07-29T03:45:16;94957.38;;;16.11;100.00
36828;BME280;22766;48.042;11.192;2022-07-29T03:47:50;94952.59;;;16.15;100.00
36828;BME280;22766;48.042;11.192;2022-07-29T03:50:25;94943.56;;;16.11;100.00
36828;BME280;22766;48.042;11.192;2022-07-29T03:52:52;94936.72;;;16.10;100.00
36828;BME280;22766;48.042;11.192;2022-07-29T03:55:19;94941.13;;;16.09;100.00
36828;BME280;22766;48.042;11.192;2022-07-29T03:57:46;94944.19;;;16.13;100.00
36828;BME280;22766;48.042;11.192;2022-07-29T04:00:14;94944.22;;;16.19;100.00
36828;BME280;22766;48.042;11.192;2022-07-29T04:02:45;94942.25;;;16.21;100.00
36828;BME280;22766;48.042;11.192;2022-07-29T04:05:15;94946.63;;;16.21;100.00
36828;BME280;22766;48.042;11.192;2022-07-29T04:07:47;94947.03;;;16.18;100.00
36828;BME280;22766;48.042;11.192;2022-07-29T04:10:15;94954.75;;;16.11;100.00
36828;BME280;22766;48.042;11.192;2022-07-29T04:12:54;94948.59;;;16.12;100.00
36828;BME280;22766;48.042;11.192;2022-07-29T04:15:21;94947.97;;;16.10;100.00
36828;BME280;22766;48.042;11.192;2022-07-29T04:17:48;94954.16;;;16.09;100.00
36828;BME280;22766;48.042;11.192;2022-07-29T04:20:14;94946.91;;;16.05;100.00
36828;BME280;22766;48.042;11.192;2022-07-29T04:22:41;94958.50;;;16.02;100.00
36828;BME280;22766;48.042;11.192;2022-07-29T04:25:08;94953.81;;;15.98;100.00
36828;BME280;22766;48.042;11.192;2022-07-29T04:27:35;94962.31;;;15.85;100.00
36828;BME280;22766;48.042;11.192;2022-07-29T04:30:02;94959.84;;;15.77;100.00
36828;BME280;22766;48.042;11.192;2022-07-29T04:32:29;94971.88;;;15.78;100.00
36828;BME280;22766;48.042;11.192;2022-07-29T04:34:56;94980.75;;;15.83;100.00
36828;BME280;22766;48.042;11.192;2022-07-29T04:37:22;94981.47;;;15.77;100.00
36828;BME280;22766;48.042;11.192;2022-07-29T04:39:49;94981.09;;;15.59;100.00
36828;BME280;22766;48.042;11.192;2022-07-29T04:42:15;94986.19;;;15.53;100.00
36828;BME280;22766;48.042;11.192;2022-07-29T04:44:42;94981.00;;;15.53;100.00
36828;BME280;22766;48.042;11.192;2022-07-29T04:47:09;94993.31;;;15.44;100.00
36828;BME280;22766;48.042;11.192;2022-07-29T04:49:39;94991.88;;;15.42;100.00
36828;BME280;22766;48.042;11.192;2022-07-29T04:52:06;94989.78;;;15.37;100.00
36828;BME280;22766;48.042;11.192;2022-07-29T04:54:33;94994.47;;;15.42;100.00
36828;BME280;22766;48.042;11.192;2022-07-29T04:56:59;94995.59;;;15.54;100.00
36828;BME280;22766;48.042;11.192;2022-07-29T04:59:26;94997.63;;;15.73;100.00
36828;BME280;22766;48.042;11.192;2022-07-29T05:01:53;94997.22;;;15.90;100.00
36828;BME280;22766;48.042;11.192;2022-07-29T05:04:20;94996.59;;;16.03;100.00
36828;BME280;22766;48.042;11.192;2022-07-29T05:06:47;94997.31;;;16.18;100.00
36828;BME280;22766;48.042;11.192;2022-07-29T05:09:14;95000.47;;;16.35;100.00
36828;BME280;22766;48.042;11.192;2022-07-29T05:11:40;94994.94;;;16.44;100.00
36828;BME280;22766;48.042;11.192;2022-07-29T05:14:07;95001.47;;;16.55;100.00
36828;BME280;22766;48.042;11.192;2022-07-29T05:16:34;94999.91;;;16.60;100.00
36828;BME280;22766;48.042;11.192;2022-07-29T05:19:01;94995.38;;;16.69;100.00
36828;BME280;22766;48.042;11.192;2022-07-29T05:21:28;95002.88;;;16.78;100.00
36828;BME280;22766;48.042;11.192;2022-07-29T05:23:54;95000.56;;;16.90;100.00
36828;BME280;22766;48.042;11.192;2022-07-29T05:26:21;94999.41;;;16.99;100.00
36828;BME280;22766;48.042;11.192;2022-07-29T05:28:48;94999.19;;;17.01;100.00
36828;BME280;22766;48.042;11.192;2022-07-29T05:31:14;94993.22;;;17.07;100.00
36828;BME280;22766;48.042;11.192;2022-07-29T05:33:41;94999.34;;;17.20;100.00
36828;BME280;22766;48.042;11.192;2022-07-29T05:36:08;95002.22;;;17.38;100.00
36828;BME280;22766;48.042;11.192;2022-07-29T05:38:35;95000.63;;;17.37;100.00
36828;BME280;22766;48.042;11.192;2022-07-29T05:41:05;95003.69;;;17.47;100.00
36828;BME280;22766;48.042;11.192;2022-07-29T05:43:32;95007.00;;;17.62;100.00
36828;BME280;22766;48.042;11.192;2022-07-29T05:45:59;95013.06;;;17.69;100.00
36828;BME280;22766;48.042;11.192;2022-07-29T05:48:26;95013.88;;;17.77;100.00
36828;BME280;22766;48.042;11.192;2022-07-29T05:50:54;95016.13;;;17.86;100.00
36828;BME280;22766;48.042;11.192;2022-07-29T05:53:21;95006.06;;;17.90;100.00
36828;BME280;22766;48.042;11.192;2022-07-29T05:55:48;95010.28;;;17.78;100.00
36828;BME280;22766;48.042;11.192;2022-07-29T05:58:15;95011.41;;;17.68;100.00
36828;BME280;22766;48.042;11.192;2022-07-29T06:00:41;95005.84;;;17.78;100.00
36828;BME280;22766;48.042;11.192;2022-07-29T06:03:08;95004.09;;;18.05;100.00
36828;BME280;22766;48.042;11.192;2022-07-29T06:05:35;95016.03;;;18.33;100.00
36828;BME280;22766;48.042;11.192;2022-07-29T06:08:02;95012.66;;;18.52;100.00
36828;BME280;22766;48.042;11.192;2022-07-29T06:10:28;95009.66;;;18.69;100.00
36828;BME280;22766;48.042;11.192;2022-07-29T06:12:55;95011.69;;;18.53;100.00
36828;BME280;22766;48.042;11.192;2022-07-29T06:15:22;95015.28;;;18.72;100.00
36828;BME280;22766;48.042;11.192;2022-07-29T06:17:49;95027.16;;;18.94;100.00
36828;BME280;22766;48.042;11.192;2022-07-29T06:20:29;95021.31;;;19.12;100.00
36828;BME280;22766;48.042;11.192;2022-07-29T06:22:57;95032.75;;;19.30;100.00
36828;BME280;22766;48.042;11.192;2022-07-29T06:25:24;95023.91;;;19.38;100.00
36828;BME280;22766;48.042;11.192;2022-07-29T06:27:50;95029.69;;;19.53;100.00
36828;BME280;22766;48.042;11.192;2022-07-29T06:30:17;95026.81;;;19.74;100.00
36828;BME280;22766;48.042;11.192;2022-07-29T06:32:44;95029.63;;;19.79;100.00
36828;BME280;22766;48.042;11.192;2022-07-29T06:35:10;95031.97;;;19.94;100.00
36828;BME280;22766;48.042;11.192;2022-07-29T06:37:57;95027.03;;;20.17;100.00
36828;BME280;22766;48.042;11.192;2022-07-29T06:40:25;95033.66;;;20.26;100.00
36828;BME280;22766;48.042;11.192;2022-07-29T06:43:11;95028.31;;;20.45;100.00
36828;BME280;22766;48.042;11.192;2022-07-29T06:45:37;95032.03;;;20.63;100.00
36828;BME280;22766;48.042;11.192;2022-07-29T06:48:08;95031.22;;;20.87;100.00
36828;BME280;22766;48.042;11.192;2022-07-29T06:50:35;95034.69;;;21.12;100.00
36828;BME280;22766;48.042;11.192;2022-07-29T06:53:02;95041.03;;;21.22;100.00
36828;BME280;22766;48.042;11.192;2022-07-29T06:55:29;95040.50;;;21.57;99.23
36828;BME280;22766;48.042;11.192;2022-07-29T06:57:55;95047.50;;;21.63;98.42
36828;BME280;22766;48.042;11.192;2022-07-29T07:00:22;95049.25;;;21.51;92.25
36828;BME280;22766;48.042;11.192;2022-07-29T07:02:49;95043.66;;;21.65;93.25
36828;BME280;22766;48.042;11.192;2022-07-29T07:05:16;95046.94;;;21.79;94.68
36828;BME280;22766;48.042;11.192;2022-07-29T07:07:42;95046.41;;;22.06;93.45
36828;BME280;22766;48.042;11.192;2022-07-29T07:10:09;95050.09;;;21.87;90.45
36828;BME280;22766;48.042;11.192;2022-07-29T07:12:36;95053.00;;;21.97;90.62
36828;BME280;22766;48.042;11.192;2022-07-29T07:15:02;95050.91;;;22.36;91.50
36828;BME280;22766;48.042;11.192;2022-07-29T07:17:29;95049.22;;;22.71;87.55
36828;BME280;22766;48.042;11.192;2022-07-29T07:19:56;95049.16;;;22.59;87.73
36828;BME280;22766;48.042;11.192;2022-07-29T07:22:23;95048.28;;;22.65;87.88
36828;BME280;22766;48.042;11.192;2022-07-29T07:24:49;95049.94;;;22.89;84.85
36828;BME280;22766;48.042;11.192;2022-07-29T07:27:16;95059.56;;;22.95;83.56
36828;BME280;22766;48.042;11.192;2022-07-29T07:29:43;95053.63;;;23.00;81.90
36828;BME280;22766;48.042;11.192;2022-07-29T07:32:09;95049.44;;;23.34;80.82
36828;BME280;22766;48.042;11.192;2022-07-29T07:34:36;95055.72;;;23.67;81.12
36828;BME280;22766;48.042;11.192;2022-07-29T07:37:05;95051.13;;;23.74;80.44
36828;BME280;22766;48.042;11.192;2022-07-29T07:39:31;95065.91;;;23.64;71.77
36828;BME280;22766;48.042;11.192;2022-07-29T07:41:58;95066.25;;;23.56;74.39
36828;BME280;22766;48.042;11.192;2022-07-29T07:44:25;95060.31;;;23.72;76.13
36828;BME280;22766;48.042;11.192;2022-07-29T07:46:52;95064.09;;;23.76;70.04
36828;BME280;22766;48.042;11.192;2022-07-29T07:49:20;95058.66;;;23.82;72.20
36828;BME280;22766;48.042;11.192;2022-07-29T07:51:47;95053.31;;;24.29;67.52
36828;BME280;22766;48.042;11.192;2022-07-29T07:54:16;95056.34;;;24.37;66.77
36828;BME280;22766;48.042;11.192;2022-07-29T07:56:46;95051.94;;;24.54;63.27
36828;BME280;22766;48.042;11.192;2022-07-29T07:59:19;95048.34;;;24.88;59.18
36828;BME280;22766;48.042;11.192;2022-07-29T08:01:45;95048.69;;;25.42;64.56
36828;BME280;22766;48.042;11.192;2022-07-29T08:04:22;95048.53;;;25.48;63.48
36828;BME280;22766;48.042;11.192;2022-07-29T08:06:55;95049.47;;;25.42;59.07
36828;BME280;22766;48.042;11.192;2022-07-29T08:09:23;95053.50;;;25.28;60.20
36828;BME280;22766;48.042;11.192;2022-07-29T08:11:57;95055.53;;;24.76;65.67
36828;BME280;22766;48.042;11.192;2022-07-29T08:14:24;95068.94;;;24.47;67.39
36828;BME280;22766;48.042;11.192;2022-07-29T08:16:51;95060.56;;;24.50;68.50
36828;BME280;22766;48.042;11.192;2022-07-29T08:19:18;95052.13;;;24.36;68.01
36828;BME280;22766;48.042;11.192;2022-07-29T08:21:45;95056.19;;;24.27;70.64
36828;BME280;22766;48.042;11.192;2022-07-29T08:24:11;95057.31;;;24.31;70.35
36828;BME280;22766;48.042;11.192;2022-07-29T08:26:57;95064.53;;;24.36;69.70
36828;BME280;22766;48.042;11.192;2022-07-29T08:29:23;95056.19;;;24.27;71.84
36828;BME280;22766;48.042;11.192;2022-07-29T08:31:50;95064.72;;;24.46;71.00
36828;BME280;22766;48.042;11.192;2022-07-29T08:34:17;95061.38;;;24.50;72.33
36828;BME280;22766;48.042;11.192;2022-07-29T08:36:51;95064.06;;;24.11;69.45
36828;BME280;22766;48.042;11.192;2022-07-29T08:39:18;95066.63;;;24.22;67.02
36828;BME280;22766;48.042;11.192;2022-07-29T08:41:44;95068.91;;;24.30;63.86
36828;BME280;22766;48.042;11.192;2022-07-29T08:44:22;95070.91;;;24.12;72.21
36828;BME280;22766;48.042;11.192;2022-07-29T08:46:55;95078.97;;;23.93;71.77
36828;BME280;22766;48.042;11.192;2022-07-29T08:49:22;95082.06;;;24.02;73.43
36828;BME280;22766;48.042;11.192;2022-07-29T08:51:49;95083.81;;;24.36;68.72
36828;BME280;22766;48.042;11.192;2022-07-29T08:54:17;95074.47;;;24.73;65.36
36828;BME280;22766;48.042;11.192;2022-07-29T08:56:48;95073.56;;;24.40;65.97
36828;BME280;22766;48.042;11.192;2022-07-29T08:59:19;95072.59;;;24.57;64.85
36828;BME280;22766;48.042;11.192;2022-07-29T09:01:48;95073.56;;;24.12;68.43
36828;BME280;22766;48.042;11.192;2022-07-29T09:04:18;95081.38;;;23.83;69.32
36828;BME280;22766;48.042;11.192;2022-07-29T09:06:51;95083.34;;;23.65;74.72
36828;BME280;22766;48.042;11.192;2022-07-29T09:09:18;95082.31;;;23.54;75.84
36828;BME280;22766;48.042;11.192;2022-07-29T09:11:45;95081.28;;;23.44;76.46
36828;BME280;22766;48.042;11.192;2022-07-29T09:14:12;95086.19;;;23.75;73.60
36828;BME280;22766;48.042;11.192;2022-07-29T09:16:54;95090.69;;;23.74;68.70
36828;BME280;22766;48.042;11.192;2022-07-29T09:21:50;95083.94;;;23.55;72.84
36828;BME280;22766;48.042;11.192;2022-07-29T09:27:10;95074.84;;;23.28;69.54
36828;BME280;22766;48.042;11.192;2022-07-29T09:29:38;95083.88;;;23.78;67.81
36828;BME280;22766;48.042;11.192;2022-07-29T09:32:09;95081.03;;;23.80;69.70
36828;BME280;22766;48.042;11.192;2022-07-29T09:34:36;95078.50;;;23.96;74.53
36828;BME280;22766;48.042;11.192;2022-07-29T09:37:04;95071.09;;;24.33;71.76
36828;BME280;22766;48.042;11.192;2022-07-29T09:39:34;95069.88;;;24.80;65.68
36828;BME280;22766;48.042;11.192;2022-07-29T09:42:03;95066.81;;;24.72;60.91
36828;BME280;22766;48.042;11.192;2022-07-29T09:44:45;95061.84;;;24.47;65.79
36828;BME280;22766;48.042;11.192;2022-07-29T09:47:15;95062.94;;;24.35;63.30
36828;BME280;22766;48.042;11.192;2022-07-29T09:49:58;95066.22;;;24.14;63.59
36828;BME280;22766;48.042;11.192;2022-07-29T09:52:27;95067.59;;;24.16;63.18
36828;BME280;22766;48.042;11.192;2022-07-29T09:55:07;95065.41;;;24.13;64.46
36828;BME280;22766;48.042;11.192;2022-07-29T09:57:34;95060.84;;;23.85;66.11
36828;BME280;22766;48.042;11.192;2022-07-29T10:00:07;95060.19;;;23.67;68.16
36828;BME280;22766;48.042;11.192;2022-07-29T10:02:39;95058.91;;;23.81;71.55
36828;BME280;22766;48.042;11.192;2022-07-29T10:05:16;95057.41;;;24.64;68.60
36828;BME280;22766;48.042;11.192;2022-07-29T10:10:25;95064.13;;;25.17;67.50
36828;BME280;22766;48.042;11.192;2022-07-29T10:15:23;95065.97;;;25.87;59.48
36828;BME280;22766;48.042;11.192;2022-07-29T10:17:54;95061.81;;;26.08;60.98
36828;BME280;22766;48.042;11.192;2022-07-29T10:20:22;95060.22;;;26.34;55.81
36828;BME280;22766;48.042;11.192;2022-07-29T10:22:50;95057.59;;;26.60;58.34
36828;BME280;22766;48.042;11.192;2022-07-29T10:25:20;95057.75;;;26.27;60.82
36828;BME280;22766;48.042;11.192;2022-07-29T10:27:47;95054.50;;;26.42;60.02
36828;BME280;22766;48.042;11.192;2022-07-29T10:30:16;95067.50;;;26.92;56.00
36828;BME280;22766;48.042;11.192;2022-07-29T10:46:36;95059.25;;;27.56;53.86
36828;BME280;22766;48.042;11.192;2022-07-29T10:54:17;95047.88;;;28.80;47.33
36828;BME280;22766;48.042;11.192;2022-07-29T10:56:44;95054.28;;;28.99;43.85
36828;BME280;22766;48.042;11.192;2022-07-29T11:01:47;95052.09;;;27.94;43.66
36828;BME280;22766;48.042;11.192;2022-07-29T11:04:58;95049.91;;;27.44;44.17
36828;BME280;22766;48.042;11.192;2022-07-29T11:07:26;95051.03;;;27.21;46.08
36828;BME280;22766;48.042;11.192;2022-07-29T11:15:12;95053.69;;;27.21;44.41
36828;BME280;22766;48.042;11.192;2022-07-29T11:20:50;95041.09;;;27.75;50.07
36828;BME280;22766;48.042;11.192;2022-07-29T11:23:26;95038.28;;;27.97;45.75
36828;BME280;22766;48.042;11.192;2022-07-29T11:31:45;95034.13;;;28.11;41.69
36828;BME280;22766;48.042;11.192;2022-07-29T11:34:22;95039.22;;;28.32;40.24
36828;BME280;22766;48.042;11.192;2022-07-29T11:45:05;95023.50;;;27.27;44.34
36828;BME280;22766;48.042;11.192;2022-07-29T11:47:57;95024.56;;;27.26;45.34
36828;BME280;22766;48.042;11.192;2022-07-29T11:50:47;95022.41;;;27.18;43.70
36828;BME280;22766;48.042;11.192;2022-07-29T11:53:14;95017.31;;;27.17;46.10
36828;BME280;22766;48.042;11.192;2022-07-29T11:55:42;95009.09;;;27.45;44.84
36828;BME280;22766;48.042;11.192;2022-07-29T11:58:21;95007.94;;;27.36;47.29
36828;BME280;22766;48.042;11.192;2022-07-29T12:00:52;95007.59;;;27.27;48.85
36828;BME280;22766;48.042;11.192;2022-07-29T12:03:27;95012.31;;;27.52;45.14
36828;BME280;22766;48.042;11.192;2022-07-29T12:06:03;94998.66;;;27.33;46.77
36828;BME280;22766;48.042;11.192;2022-07-29T12:08:42;95003.59;;;27.20;51.58
36828;BME280;22766;48.042;11.192;2022-07-29T12:11:18;94999.19;;;26.99;51.63
36828;BME280;22766;48.042;11.192;2022-07-29T12:13:48;95002.13;;;27.07;47.28
36828;BME280;22766;48.042;11.192;2022-07-29T12:16:15;95003.72;;;26.71;48.90
36828;BME280;22766;48.042;11.192;2022-07-29T12:18:59;95001.75;;;26.35;52.68
36828;BME280;22766;48.042;11.192;2022-07-29T12:21:51;95004.72;;;25.96;53.52
36828;BME280;22766;48.042;11.192;2022-07-29T12:24:24;95004.03;;;25.62;57.08
36828;BME280;22766;48.042;11.192;2022-07-29T12:26:57;95001.50;;;25.34;58.43
36828;BME280;22766;48.042;11.192;2022-07-29T12:29:24;95005.97;;;25.50;51.46
36828;BME280;22766;48.042;11.192;2022-07-29T12:32:02;95000.41;;;25.68;48.74
36828;BME280;22766;48.042;11.192;2022-07-29T12:34:30;94995.72;;;25.37;51.16
36828;BME280;22766;48.042;11.192;2022-07-29T12:36:57;94993.56;;;25.17;52.73
36828;BME280;22766;48.042;11.192;2022-07-29T12:39:24;94993.53;;;24.95;54.35
36828;BME280;22766;48.042;11.192;2022-07-29T12:41:54;94995.75;;;24.87;55.15
36828;BME280;22766;48.042;11.192;2022-07-29T12:44:44;94993.44;;;24.74;59.98
36828;BME280;22766;48.042;11.192;2022-07-29T12:47:11;94991.63;;;24.46;63.93
36828;BME280;22766;48.042;11.192;2022-07-29T12:49:38;94995.13;;;24.35;63.84
36828;BME280;22766;48.042;11.192;2022-07-29T12:54:53;95000.09;;;24.76;54.47
36828;BME280;22766;48.042;11.192;2022-07-29T12:57:20;95008.34;;;24.52;58.80
36828;BME280;22766;48.042;11.192;2022-07-29T13:00:10;95010.41;;;24.33;59.41
36828;BME280;22766;48.042;11.192;2022-07-29T13:02:40;95003.69;;;24.14;59.46
36828;BME280;22766;48.042;11.192;2022-07-29T13:05:09;95005.13;;;24.33;53.88
36828;BME280;22766;48.042;11.192;2022-07-29T13:07:36;95010.84;;;24.30;54.62
36828;BME280;22766;48.042;11.192;2022-07-29T13:10:22;95016.56;;;24.11;58.88
36828;BME280;22766;48.042;11.192;2022-07-29T13:13:08;95009.81;;;23.91;63.22
36828;BME280;22766;48.042;11.192;2022-07-29T13:15:37;95017.13;;;24.01;59.72
36828;BME280;22766;48.042;11.192;2022-07-29T13:18:06;95011.09;;;23.89;60.25
36828;BME280;22766;48.042;11.192;2022-07-29T13:20:51;95010.81;;;23.62;70.11
36828;BME280;22766;48.042;11.192;2022-07-29T13:23:18;95010.81;;;23.39;77.84
36828;BME280;22766;48.042;11.192;2022-07-29T13:25:45;95011.16;;;23.31;81.19
36828;BME280;22766;48.042;11.192;2022-07-29T13:28:11;95004.72;;;23.27;83.45
36828;BME280;22766;48.042;11.192;2022-07-29T13:30:41;95001.44;;;23.32;79.61
36828;BME280;22766;48.042;11.192;2022-07-29T13:33:10;95005.88;;;22.96;87.84
36828;BME280;22766;48.042;11.192;2022-07-29T13:35:37;94999.00;;;23.07;81.71
36828;BME280;22766;48.042;11.192;2022-07-29T13:38:05;94997.41;;;23.06;91.30
36828;BME280;22766;48.042;11.192;2022-07-29T13:40:32;94986.84;;;23.29;90.50
36828;BME280;22766;48.042;11.192;2022-07-29T13:43:01;94986.44;;;23.44;91.58
36828;BME280;22766;48.042;11.192;2022-07-29T13:45:29;94997.75;;;23.44;87.95
36828;BME280;22766;48.042;11.192;2022-07-29T13:47:56;94991.13;;;23.93;85.10
36828;BME280;22766;48.042;11.192;2022-07-29T13:50:22;94987.25;;;24.24;83.98
36828;BME280;22766;48.042;11.192;2022-07-29T13:52:49;94985.94;;;24.54;82.12
36828;BME280;22766;48.042;11.192;2022-07-29T13:55:17;94983.91;;;24.89;78.00
36828;BME280;22766;48.042;11.192;2022-07-29T13:57:44;94978.00;;;24.99;75.52
36828;BME280;22766;48.042;11.192;2022-07-29T14:00:11;94973.66;;;25.10;76.18
36828;BME280;22766;48.042;11.192;2022-07-29T14:02:38;94971.31;;;25.30;71.68
36828;BME280;22766;48.042;11.192;2022-07-29T14:05:06;94973.81;;;26.23;63.05
36828;BME280;22766;48.042;11.192;2022-07-29T14:07:34;94974.47;;;27.30;60.37